createdAt,value
2018-03-20T00:01:58.138Z,100623.41
2018-03-20T00:04:25.582Z,100627.78
2018-03-20T00:06:52.975Z,100618.25
2018-03-20T00:09:20.368Z,100611.45
2018-03-20T00:11:47.801Z,100607.15
2018-03-20T00:14:15.183Z,100603.25
2018-03-20T00:16:42.610Z,100595.89
2018-03-20T00:19:10.122Z,100596.94
2018-03-20T00:21:37.519Z,100597.92
2018-03-20T00:24:04.935Z,100590.01
2018-03-20T00:26:32.330Z,100586.48
2018-03-20T00:28:59.736Z,100586.45
2018-03-20T00:31:27.202Z,100577.45
2018-03-20T00:33:54.646Z,100576.66
2018-03-20T00:36:22.044Z,100578.83
2018-03-20T00:38:49.436Z,100574.38
2018-03-20T00:41:16.832Z,100575.91
2018-03-20T00:43:44.288Z,100577.97
2018-03-20T00:46:11.673Z,100576.86
2018-03-20T00:48:39.176Z,100575.20
2018-03-20T00:51:06.610Z,100569.63
2018-03-20T00:53:33.995Z,100568.64
2018-03-20T00:56:01.379Z,100560.34
2018-03-20T00:58:29.022Z,100554.47
2018-03-20T01:00:56.606Z,100559.89
2018-03-20T01:03:23.990Z,100555.69
2018-03-20T01:05:51.443Z,100551.84
2018-03-20T01:08:18.932Z,100547.96
2018-03-20T01:10:46.341Z,100550.16
2018-03-20T01:13:13.731Z,100547.49
2018-03-20T01:15:41.121Z,100547.18
2018-03-20T01:18:08.511Z,100544.53
2018-03-20T01:20:35.902Z,100543.10
2018-03-20T01:23:03.379Z,100541.48
2018-03-20T01:25:30.770Z,100531.64
2018-03-20T01:27:58.189Z,100530.55
2018-03-20T01:30:25.594Z,100525.35
2018-03-20T01:32:52.995Z,100515.21
2018-03-20T01:35:20.408Z,100501.94
2018-03-20T01:37:47.802Z,100506.30
2018-03-20T01:40:15.219Z,100506.26
2018-03-20T01:42:42.615Z,100493.74
2018-03-20T01:45:09.997Z,100487.81
2018-03-20T01:47:37.391Z,100492.84
2018-03-20T01:50:04.774Z,100490.86
2018-03-20T01:52:32.178Z,100487.47
2018-03-20T01:54:59.550Z,100478.20
2018-03-20T01:57:27.011Z,100483.42
2018-03-20T01:59:54.399Z,100466.76
2018-03-20T02:02:21.794Z,100474.91
2018-03-20T02:04:49.179Z,100472.18
2018-03-20T02:07:16.627Z,100470.95
2018-03-20T02:09:44.023Z,100470.42
2018-03-20T02:12:11.415Z,100459.25
2018-03-20T02:14:38.802Z,100461.34
2018-03-20T02:17:06.191Z,100455.59
2018-03-20T02:19:33.603Z,100458.73
2018-03-20T02:22:00.998Z,100453.70
2018-03-20T02:24:28.395Z,100452.56
2018-03-20T02:26:55.800Z,100448.22
2018-03-20T02:29:23.187Z,100453.38
2018-03-20T02:31:50.701Z,100445.67
2018-03-20T02:34:18.158Z,100440.58
2018-03-20T02:36:45.558Z,100437.95
2018-03-20T02:39:12.968Z,100436.03
2018-03-20T02:41:40.351Z,100443.80
2018-03-20T02:44:07.770Z,100440.41
2018-03-20T02:46:35.159Z,100439.58
2018-03-20T02:49:02.574Z,100443.39
2018-03-20T02:51:29.964Z,100442.67
2018-03-20T02:53:57.359Z,100436.19
2018-03-20T02:56:24.870Z,100430.85
2018-03-20T02:58:52.275Z,100433.92
2018-03-20T03:01:19.662Z,100433.77
2018-03-20T03:03:47.059Z,100434.28
2018-03-20T03:06:14.492Z,100437.41
2018-03-20T03:08:41.901Z,100428.72
2018-03-20T03:11:09.304Z,100421.20
2018-03-20T03:13:36.695Z,100422.67
2018-03-20T03:16:04.095Z,100422.69
2018-03-20T03:18:31.480Z,100423.30
2018-03-20T03:20:58.872Z,100416.18
2018-03-20T03:23:26.270Z,100420.48
2018-03-20T03:25:53.678Z,100415.09
2018-03-20T03:28:21.134Z,100416.37
2018-03-20T03:30:48.599Z,100417.22
2018-03-20T03:33:16.007Z,100412.71
2018-03-20T03:35:43.394Z,100410.23
2018-03-20T03:38:10.798Z,100409.39
2018-03-20T03:40:38.188Z,100414.31
2018-03-20T03:43:05.590Z,100411.95
2018-03-20T03:45:32.974Z,100410.66
2018-03-20T03:48:00.394Z,100408.65
2018-03-20T03:50:27.807Z,100420.92
2018-03-20T03:52:55.211Z,100420.89
2018-03-20T03:55:22.632Z,100419.38
2018-03-20T03:57:50.027Z,100424.72
2018-03-20T04:00:17.423Z,100421.34
2018-03-20T04:02:44.955Z,100420.83
2018-03-20T04:05:12.318Z,100416.92
2018-03-20T04:07:39.718Z,100419.66
2018-03-20T04:10:07.131Z,100420.73
2018-03-20T04:12:34.527Z,100415.06
2018-03-20T04:15:01.938Z,100419.66
2018-03-20T04:17:29.395Z,100412.39
2018-03-20T04:19:56.785Z,100416.52
2018-03-20T04:22:24.227Z,100418.48
2018-03-20T04:24:51.621Z,100412.97
2018-03-20T04:27:19.014Z,100417.66
2018-03-20T04:29:46.410Z,100412.59
2018-03-20T04:32:13.831Z,100410.05
2018-03-20T04:34:41.231Z,100412.45
2018-03-20T04:37:08.644Z,100408.56
2018-03-20T04:39:36.040Z,100419.70
2018-03-20T04:42:03.427Z,100411.69
2018-03-20T04:44:30.824Z,100414.96
2018-03-20T04:46:58.222Z,100416.41
2018-03-20T04:49:25.638Z,100417.98
2018-03-20T04:51:53.035Z,100423.19
2018-03-20T04:54:20.470Z,100424.57
2018-03-20T04:56:47.918Z,100430.34
2018-03-20T04:59:15.337Z,100435.95
2018-03-20T05:01:42.701Z,100433.80
2018-03-20T05:04:10.094Z,100431.92
2018-03-20T05:06:37.484Z,100433.37
2018-03-20T05:09:04.908Z,100443.28
2018-03-20T05:11:32.358Z,100442.82
2018-03-20T05:13:59.751Z,100438.34
2018-03-20T05:16:27.142Z,100441.38
2018-03-20T05:18:55.310Z,100448.03
2018-03-20T05:21:26.507Z,100449.97
2018-03-20T05:23:54.847Z,100449.94
2018-03-20T05:26:22.239Z,100456.39
2018-03-20T05:28:49.687Z,100458.46
2018-03-20T05:31:17.083Z,100460.39
2018-03-20T05:33:44.570Z,100460.11
2018-03-20T05:36:11.943Z,100471.33
2018-03-20T05:38:39.342Z,100469.92
2018-03-20T05:41:06.890Z,100474.45
2018-03-20T05:43:34.290Z,100476.80
2018-03-20T05:46:01.674Z,100477.06
2018-03-20T05:48:34.787Z,100479.90
2018-03-20T05:51:03.626Z,100487.52
2018-03-20T05:53:31.028Z,100482.73
2018-03-20T05:55:58.445Z,100489.25
2018-03-20T05:58:25.854Z,100494.20
2018-03-20T06:00:53.292Z,100495.80
2018-03-20T06:03:20.723Z,100508.07
2018-03-20T06:05:48.110Z,100518.72
2018-03-20T06:08:15.488Z,100522.53
2018-03-20T06:10:42.896Z,100521.36
2018-03-20T06:13:10.283Z,100525.59
2018-03-20T06:15:37.721Z,100528.10
2018-03-20T06:18:06.038Z,100546.94
2018-03-20T06:20:33.438Z,100545.25
2018-03-20T06:23:00.832Z,100544.95
2018-03-20T06:25:28.214Z,100550.20
2018-03-20T06:27:55.624Z,100554.47
2018-03-20T06:30:23.005Z,100555.66
2018-03-20T06:32:50.411Z,100560.27
2018-03-20T06:35:17.875Z,100568.56
2018-03-20T06:37:45.339Z,100571.08
2018-03-20T06:40:12.809Z,100584.59
2018-03-20T06:42:40.187Z,100584.38
2018-03-20T06:45:07.580Z,100588.74
2018-03-20T06:47:34.957Z,100590.63
2018-03-20T06:50:02.357Z,100592.62
2018-03-20T06:52:29.738Z,100606.95
2018-03-20T06:54:57.131Z,100607.23
2018-03-20T06:57:24.564Z,100613.69
2018-03-20T06:59:51.954Z,100621.54
2018-03-20T07:02:19.339Z,100627.36
2018-03-20T07:04:46.794Z,100628.54
2018-03-20T07:07:14.291Z,100634.05
2018-03-20T07:09:41.679Z,100632.11
2018-03-20T07:12:09.060Z,100639.63
2018-03-20T07:14:36.560Z,100648.96
2018-03-20T07:17:03.938Z,100651.17
2018-03-20T07:19:31.332Z,100650.33
2018-03-20T07:21:58.718Z,100654.80
2018-03-20T07:24:26.128Z,100673.54
2018-03-20T07:26:53.587Z,100674.52
2018-03-20T07:29:21.023Z,100673.15
2018-03-20T07:31:48.408Z,100682.34
2018-03-20T07:34:15.798Z,100679.70
2018-03-20T07:36:43.176Z,100698.20
2018-03-20T07:39:10.550Z,100699.54
2018-03-20T07:41:37.943Z,100709.27
2018-03-20T07:44:05.326Z,100714.33
2018-03-20T07:46:32.722Z,100723.72
2018-03-20T07:49:00.115Z,100722.77
2018-03-20T07:51:27.507Z,100737.92
2018-03-20T07:53:54.895Z,100734.42
2018-03-20T07:56:22.431Z,100735.24
2018-03-20T07:58:49.795Z,100738.92
2018-03-20T08:01:17.186Z,100745.48
2018-03-20T08:03:44.570Z,100747.34
2018-03-20T08:06:12.022Z,100753.52
2018-03-20T08:08:39.406Z,100739.89
2018-03-20T08:11:06.803Z,100751.50
2018-03-20T08:13:34.187Z,100763.45
2018-03-20T08:16:01.660Z,100757.12
2018-03-20T08:18:29.112Z,100770.30
2018-03-20T08:20:56.494Z,100774.15
2018-03-20T08:23:23.891Z,100783.05
2018-03-20T08:25:51.420Z,100784.66
2018-03-20T08:28:18.750Z,100789.84
2018-03-20T08:30:46.138Z,100786.88
2018-03-20T08:33:13.518Z,100797.47
2018-03-20T08:35:40.915Z,100792.11
2018-03-20T08:38:08.343Z,100806.45
2018-03-20T08:40:35.728Z,100819.06
2018-03-20T08:43:03.113Z,100815.23
2018-03-20T08:45:30.502Z,100814.08
2018-03-20T08:47:57.970Z,100830.88
2018-03-20T08:50:25.363Z,100831.38
2018-03-20T08:52:52.747Z,100828.66
2018-03-20T08:55:20.134Z,100831.48
2018-03-20T08:57:47.587Z,100848.39
2018-03-20T09:00:15.046Z,100851.53
2018-03-20T09:02:42.431Z,100853.55
2018-03-20T09:05:09.822Z,100863.36
2018-03-20T09:07:37.202Z,100873.73
2018-03-20T09:10:04.594Z,100879.83
2018-03-20T09:12:32.022Z,100884.50
2018-03-20T09:14:59.471Z,100885.69
2018-03-20T09:17:26.931Z,100892.52
2018-03-20T09:19:54.399Z,100896.46
2018-03-20T09:22:21.847Z,100896.45
2018-03-20T09:24:49.230Z,100906.95
2018-03-20T09:27:16.616Z,100904.83
2018-03-20T09:29:43.994Z,100904.69
2018-03-20T09:32:11.391Z,100908.00
2018-03-20T09:34:38.775Z,100911.14
2018-03-20T09:37:06.175Z,100915.88
2018-03-20T09:39:33.559Z,100923.38
2018-03-20T09:42:00.951Z,100925.94
2018-03-20T09:44:28.329Z,100937.29
2018-03-20T09:46:55.714Z,100933.25
2018-03-20T09:49:23.099Z,100942.28
2018-03-20T09:51:50.483Z,100941.55
2018-03-20T09:54:17.866Z,100946.20
2018-03-20T09:56:45.260Z,100948.38
2018-03-20T09:59:12.672Z,100943.29
2018-03-20T10:01:40.062Z,100955.59
2018-03-20T10:04:07.451Z,100968.13
2018-03-20T10:06:34.840Z,100958.50
2018-03-20T10:09:02.231Z,100968.87
2018-03-20T10:11:29.619Z,100970.62
2018-03-20T10:13:56.994Z,100977.09
2018-03-20T10:16:24.383Z,100985.59
2018-03-20T10:18:51.767Z,100993.92
2018-03-20T10:21:19.166Z,100998.75
2018-03-20T10:23:46.663Z,100998.37
2018-03-20T10:26:14.069Z,100997.66
2018-03-20T10:28:41.540Z,101000.75
2018-03-20T10:31:08.995Z,100997.60
2018-03-20T10:33:36.440Z,101020.80
2018-03-20T10:36:03.822Z,101014.02
2018-03-20T10:38:31.230Z,101012.67
2018-03-20T10:40:58.617Z,101012.23
2018-03-20T10:43:26.007Z,101027.22
2018-03-20T10:45:53.390Z,101034.52
2018-03-20T10:48:20.775Z,101026.42
2018-03-20T10:50:48.242Z,101034.61
2018-03-20T10:53:15.628Z,101035.25
2018-03-20T10:55:43.016Z,101044.40
2018-03-20T10:58:10.394Z,101037.05
2018-03-20T11:03:40.543Z,101040.66
2018-03-20T11:06:07.931Z,101044.76
2018-03-20T11:08:35.321Z,101057.06
2018-03-20T11:11:02.706Z,101059.58
2018-03-20T11:13:30.163Z,101064.05
2018-03-20T11:15:57.558Z,101072.38
2018-03-20T11:18:24.978Z,101075.22
2018-03-20T11:20:52.366Z,101076.06
2018-03-20T11:23:19.747Z,101075.70
2018-03-20T11:25:47.247Z,101083.52
2018-03-20T11:28:14.710Z,101080.05
2018-03-20T11:30:42.104Z,101091.55
2018-03-20T11:33:09.511Z,101087.83
2018-03-20T11:35:36.904Z,101092.88
2018-03-20T11:38:04.293Z,101098.85
2018-03-20T11:40:31.783Z,101098.09
2018-03-20T11:42:59.162Z,101108.70
2018-03-20T11:45:26.599Z,101116.80
2018-03-20T11:47:54.052Z,101103.73
2018-03-20T11:50:21.443Z,101106.92
2018-03-20T11:52:48.835Z,101122.98
2018-03-20T11:55:16.211Z,101125.59
2018-03-20T11:57:43.599Z,101122.05
2018-03-20T12:00:10.988Z,101119.08
2018-03-20T12:02:38.376Z,101117.05
2018-03-20T12:05:05.751Z,101127.78
2018-03-20T12:07:33.139Z,101116.17
2018-03-20T12:10:00.523Z,101128.11
2018-03-20T12:12:27.913Z,101121.82
2018-03-20T12:14:55.378Z,101142.66
2018-03-20T12:17:22.797Z,101146.48
2018-03-20T12:19:50.174Z,101153.97
2018-03-20T12:22:17.631Z,101141.47
2018-03-20T12:24:45.017Z,101136.37
2018-03-20T12:27:12.423Z,101150.43
2018-03-20T12:29:39.899Z,101148.91
2018-03-20T12:32:07.291Z,101156.34
2018-03-20T12:34:34.675Z,101164.66
2018-03-20T12:37:02.070Z,101150.38
2018-03-20T12:39:29.466Z,101160.23
2018-03-20T12:41:56.842Z,101167.88
2018-03-20T12:44:24.335Z,101170.03
2018-03-20T12:46:51.723Z,101176.06
2018-03-20T12:49:19.139Z,101180.39
2018-03-20T12:51:46.531Z,101185.52
2018-03-20T12:54:13.954Z,101190.17
2018-03-20T12:56:41.348Z,101187.97
2018-03-20T12:59:08.724Z,101187.20
2018-03-20T13:01:36.118Z,101189.17
2018-03-20T13:04:03.579Z,101201.53
2018-03-20T13:06:30.966Z,101199.37
2018-03-20T13:08:58.390Z,101196.47
2018-03-20T13:11:25.847Z,101210.52
2018-03-20T13:13:53.352Z,101214.17
2018-03-20T13:16:20.735Z,101216.94
2018-03-20T13:18:48.110Z,101219.36
2018-03-20T13:21:15.570Z,101221.14
2018-03-20T13:23:42.958Z,101218.41
2018-03-20T13:26:10.350Z,101215.90
2018-03-20T13:28:37.735Z,101222.64
2018-03-20T13:31:05.131Z,101228.97
2018-03-20T13:33:32.516Z,101225.47
2018-03-20T13:35:59.923Z,101226.17
2018-03-20T13:38:27.386Z,101231.48
2018-03-20T13:40:54.837Z,101239.56
2018-03-20T13:43:22.295Z,101232.98
2018-03-20T13:45:49.689Z,101226.23
2018-03-20T13:48:17.091Z,101240.64
2018-03-20T13:50:44.551Z,101237.06
2018-03-20T13:53:18.421Z,101243.92
2018-03-20T13:55:45.795Z,101244.33
2018-03-20T13:58:13.182Z,101245.94
2018-03-20T14:00:40.567Z,101256.15
2018-03-20T14:03:07.985Z,101248.70
2018-03-20T14:05:35.442Z,101259.47
2018-03-20T14:08:02.831Z,101262.38
2018-03-20T14:10:30.211Z,101260.92
2018-03-20T14:12:57.702Z,101271.16
2018-03-20T14:15:25.089Z,101278.92
2018-03-20T14:17:52.480Z,101275.79
2018-03-20T14:20:19.974Z,101279.27
2018-03-20T14:22:47.367Z,101281.66
2018-03-20T14:25:14.750Z,101282.24
2018-03-20T14:27:42.150Z,101280.91
2018-03-20T14:30:09.538Z,101284.97
2018-03-20T14:32:36.947Z,101294.14
2018-03-20T14:35:04.327Z,101292.67
2018-03-20T14:37:31.715Z,101296.71
2018-03-20T14:39:59.119Z,101297.45
2018-03-20T14:42:26.593Z,101293.45
2018-03-20T14:44:54.047Z,101307.19
2018-03-20T14:47:21.494Z,101309.18
2018-03-20T14:49:48.898Z,101310.72
2018-03-20T14:52:16.289Z,101313.22
2018-03-20T14:54:43.674Z,101319.47
2018-03-20T14:57:11.063Z,101326.62
2018-03-20T14:59:38.439Z,101325.91
2018-03-20T15:02:05.927Z,101330.28
2018-03-20T15:04:33.310Z,101330.73
2018-03-20T15:07:00.703Z,101335.98
2018-03-20T15:09:28.194Z,101342.50
2018-03-20T15:11:55.702Z,101350.48
2018-03-20T15:14:23.115Z,101354.27
2018-03-20T15:16:50.498Z,101358.40
2018-03-20T15:19:17.892Z,101355.27
2018-03-20T15:21:45.464Z,101354.52
2018-03-20T15:24:12.943Z,101369.70
2018-03-20T15:26:40.331Z,101364.42
2018-03-20T15:29:07.715Z,101375.63
2018-03-20T15:31:35.099Z,101373.45
2018-03-20T15:34:02.599Z,101381.69
2018-03-20T15:36:29.943Z,101383.34
2018-03-20T15:38:57.326Z,101383.16
2018-03-20T15:41:24.735Z,101389.19
2018-03-20T15:43:52.123Z,101386.18
2018-03-20T15:46:19.507Z,101388.63
2018-03-20T15:48:46.898Z,101393.41
2018-03-20T15:51:14.287Z,101398.13
2018-03-20T15:53:41.711Z,101403.34
2018-03-20T15:56:09.171Z,101411.20
2018-03-20T15:58:36.563Z,101413.04
2018-03-20T16:01:03.943Z,101419.45
2018-03-20T16:03:31.339Z,101425.59
2018-03-20T16:05:58.719Z,101429.30
2018-03-20T16:08:26.109Z,101430.34
2018-03-20T16:10:53.494Z,101434.56
2018-03-20T16:13:20.886Z,101426.17
2018-03-20T16:15:48.291Z,101434.09
2018-03-20T16:18:15.770Z,101438.80
2018-03-20T16:20:43.158Z,101446.53
2018-03-20T16:23:10.540Z,101448.16
2018-03-20T16:25:37.934Z,101450.35
2018-03-20T16:28:05.323Z,101462.55
2018-03-20T16:30:32.715Z,101459.14
2018-03-20T16:33:00.102Z,101465.28
2018-03-20T16:35:27.566Z,101473.69
2018-03-20T16:37:55.018Z,101471.91
2018-03-20T16:40:22.477Z,101478.92
2018-03-20T16:42:49.910Z,101480.03
2018-03-20T16:45:17.255Z,101492.39
2018-03-20T16:47:44.656Z,101491.73
2018-03-20T16:50:12.039Z,101491.90
2018-03-20T16:52:39.426Z,101499.37
2018-03-20T16:55:06.911Z,101508.13
2018-03-20T16:57:34.302Z,101506.48
2018-03-20T17:00:01.691Z,101515.72
2018-03-20T17:02:29.082Z,101524.87
2018-03-20T17:04:56.486Z,101527.16
2018-03-20T17:07:23.887Z,101528.29
2018-03-20T17:09:51.282Z,101534.56
2018-03-20T17:12:18.670Z,101541.36
2018-03-20T17:14:46.072Z,101548.09
2018-03-20T17:17:13.447Z,101556.30
2018-03-20T17:19:40.829Z,101558.66
2018-03-20T17:22:08.215Z,101558.35
2018-03-20T17:24:35.596Z,101569.97
2018-03-20T17:27:03.033Z,101572.95
2018-03-20T17:29:30.420Z,101576.35
2018-03-20T17:31:57.802Z,101578.46
2018-03-20T17:34:25.199Z,101580.56
2018-03-20T17:36:52.587Z,101585.20
2018-03-20T17:39:19.972Z,101587.02
2018-03-20T17:41:47.362Z,101585.89
2018-03-20T17:44:14.750Z,101590.29
2018-03-20T17:46:42.135Z,101594.12
2018-03-20T17:49:09.552Z,101593.51
2018-03-20T17:51:36.932Z,101604.11
2018-03-20T17:54:04.318Z,101601.64
2018-03-20T17:56:31.792Z,101608.14
2018-03-20T17:58:59.250Z,101614.48
2018-03-20T18:01:26.638Z,101612.59
2018-03-20T18:03:54.028Z,101616.87
2018-03-20T18:06:21.406Z,101617.78
2018-03-20T18:08:48.820Z,101625.14
2018-03-20T18:11:16.327Z,101633.24
2018-03-20T18:13:43.790Z,101637.57
2018-03-20T18:16:11.171Z,101641.62
2018-03-20T18:18:38.568Z,101644.80
2018-03-20T18:21:05.951Z,101651.88
2018-03-20T18:23:33.342Z,101658.03
2018-03-20T18:26:00.772Z,101662.48
2018-03-20T18:28:28.158Z,101659.97
2018-03-20T18:30:55.543Z,101666.91
2018-03-20T18:33:22.927Z,101669.25
2018-03-20T18:35:50.394Z,101681.54
2018-03-20T18:38:17.775Z,101678.44
2018-03-20T18:40:45.267Z,101685.52
2018-03-20T18:43:12.655Z,101687.31
2018-03-20T18:45:40.041Z,101685.31
2018-03-20T18:48:07.431Z,101688.42
2018-03-20T18:50:34.836Z,101694.16
2018-03-20T18:53:02.217Z,101701.03
2018-03-20T18:55:29.598Z,101699.70
2018-03-20T18:57:57.036Z,101701.91
2018-03-20T19:00:24.423Z,101708.63
2018-03-20T19:02:51.862Z,101712.91
2018-03-20T19:05:19.256Z,101712.13
2018-03-20T19:07:46.654Z,101713.58
2018-03-20T19:10:14.032Z,101720.41
2018-03-20T19:12:41.435Z,101726.14
2018-03-20T19:15:08.827Z,101727.89
2018-03-20T19:17:36.253Z,101735.61
2018-03-20T19:20:03.701Z,101742.52
2018-03-20T19:22:31.080Z,101742.45
2018-03-20T19:24:58.506Z,101747.58
2018-03-20T19:27:25.895Z,101753.17
2018-03-20T19:29:53.287Z,101754.08
2018-03-20T19:32:20.668Z,101757.06
2018-03-20T19:34:48.075Z,101758.97
2018-03-20T19:37:15.470Z,101761.63
2018-03-20T19:39:42.877Z,101769.05
2018-03-20T19:42:10.296Z,101768.58
2018-03-20T19:44:37.767Z,101772.66
2018-03-20T19:47:05.156Z,101771.84
2018-03-20T19:49:32.543Z,101777.13
2018-03-20T19:51:59.923Z,101772.81
2018-03-20T19:54:27.324Z,101779.00
2018-03-20T19:56:54.726Z,101778.34
2018-03-20T19:59:22.182Z,101782.58
2018-03-20T20:01:49.566Z,101787.97
2018-03-20T20:04:16.991Z,101788.89
2018-03-20T20:06:44.387Z,101797.61
2018-03-20T20:09:11.782Z,101802.22
2018-03-20T20:11:39.171Z,101794.95
2018-03-20T20:14:06.559Z,101802.00
2018-03-20T20:16:33.955Z,101803.79
2018-03-20T20:19:01.434Z,101809.62
2018-03-20T20:21:28.815Z,101820.52
2018-03-20T20:23:56.221Z,101818.40
2018-03-20T20:26:23.656Z,101822.02
2018-03-20T20:28:51.109Z,101823.84
2018-03-20T20:31:18.499Z,101826.98
2018-03-20T20:33:45.882Z,101830.53
2018-03-20T20:36:13.353Z,101835.66
2018-03-20T20:38:40.739Z,101835.72
2018-03-20T20:41:08.138Z,101836.13
2018-03-20T20:43:35.525Z,101837.42
2018-03-20T20:46:03.006Z,101842.56
2018-03-20T20:48:30.407Z,101836.47
2018-03-20T20:50:57.793Z,101841.20
2018-03-20T20:53:25.198Z,101835.51
2018-03-20T20:55:52.641Z,101841.20
2018-03-20T20:58:20.106Z,101852.08
2018-03-20T21:00:47.507Z,101845.62
2018-03-20T21:03:14.895Z,101852.19
2018-03-20T21:05:42.290Z,101853.04
2018-03-20T21:08:09.742Z,101853.47
2018-03-20T21:10:37.232Z,101843.87
2018-03-20T21:13:04.630Z,101854.31
2018-03-20T21:15:32.030Z,101863.10
2018-03-20T21:17:59.430Z,101863.08
2018-03-20T21:20:26.846Z,101856.53
2018-03-20T21:22:54.227Z,101859.14
2018-03-20T21:25:21.615Z,101860.87
2018-03-20T21:27:49.090Z,101863.46
2018-03-20T21:30:16.402Z,101867.37
2018-03-20T21:32:43.878Z,101866.08
2018-03-20T21:35:11.278Z,101866.49
2018-03-20T21:37:38.674Z,101866.16
2018-03-20T21:40:06.070Z,101860.50
2018-03-20T21:42:33.460Z,101868.70
2018-03-20T21:45:00.910Z,101868.70
2018-03-20T21:47:28.303Z,101873.45
2018-03-20T21:49:55.690Z,101867.81
2018-03-20T21:52:23.071Z,101874.39
2018-03-20T21:54:50.465Z,101874.42
2018-03-20T21:57:17.851Z,101872.20
2018-03-20T22:02:19.058Z,101869.05
2018-03-20T22:04:46.494Z,101873.36
2018-03-20T22:07:13.946Z,101875.07
2018-03-20T22:09:41.347Z,101881.13
2018-03-20T22:12:08.776Z,101874.59
2018-03-20T22:14:36.710Z,101875.42
2018-03-20T22:17:04.087Z,101876.30
2018-03-20T22:19:31.538Z,101877.53
2018-03-20T22:21:58.923Z,101879.65
2018-03-20T22:24:26.311Z,101876.58
2018-03-20T22:26:53.802Z,101883.53
2018-03-20T22:29:21.266Z,101879.14
2018-03-20T22:31:48.709Z,101883.04
2018-03-20T22:34:16.172Z,101886.91
2018-03-20T22:36:43.569Z,101885.12
2018-03-20T22:39:10.948Z,101889.03
2018-03-20T22:41:39.271Z,101895.60
2018-03-20T22:44:07.549Z,101893.84
2018-03-20T22:46:34.982Z,101897.28
2018-03-20T22:49:02.878Z,101894.77
2018-03-20T22:51:30.328Z,101896.52
2018-03-20T22:53:57.791Z,101895.62
2018-03-20T22:56:25.187Z,101893.85
2018-03-20T22:58:52.570Z,101893.41
2018-03-20T23:01:19.963Z,101893.89
2018-03-20T23:03:47.338Z,101888.70
2018-03-20T23:06:14.734Z,101892.66
2018-03-20T23:08:42.119Z,101889.59
2018-03-20T23:11:09.528Z,101889.19
2018-03-20T23:13:36.913Z,101890.92
2018-03-20T23:16:04.304Z,101890.50
2018-03-20T23:18:31.697Z,101890.53
2018-03-20T23:20:59.093Z,101890.11
2018-03-20T23:23:26.569Z,101898.89
2018-03-20T23:25:53.951Z,101895.06
2018-03-20T23:28:21.365Z,101906.39
2018-03-20T23:30:48.759Z,101910.54
2018-03-20T23:33:16.147Z,101914.46
2018-03-20T23:35:43.530Z,101907.97
2018-03-20T23:38:10.931Z,101911.05
2018-03-20T23:40:38.319Z,101907.18
2018-03-20T23:43:05.702Z,101914.53
2018-03-20T23:45:33.090Z,101917.58
2018-03-20T23:48:00.477Z,101916.27
2018-03-20T23:50:27.866Z,101917.98
2018-03-20T23:52:55.251Z,101917.98
2018-03-20T23:55:22.698Z,101927.98
2018-03-20T23:57:50.082Z,101924.05
